Time;durP1;ratioP1;P1;durP2;ratioP2;P2;SDS_P1;SDS_P2;PMS_P1;PMS_P2;Temp;Humidity;BMP_temperature;BMP_pressure;BME280_temperature;BME280_humidity;BME280_pressure;Samples;Min_cycle;Max_cycle;Signal;HPM_P1;HPM_P2
2022/07/19 00:01:52;;;;;;;3.27;2.20;;;;;;;16.17;67.75;100290.22;1816821;77;21021;-71
2022/07/19 00:04:21;;;;;;;4.40;2.17;;;;;;;16.17;67.75;100287.53;1817383;77;21026;-71
2022/07/19 00:06:49;;;;;;;3.27;1.70;;;;;;;16.16;67.92;100284.52;1814533;77;21009;-72
2022/07/19 00:09:15;;;;;;;2.42;1.85;;;;;;;16.16;68.10;100281.84;1814957;77;22162;-71
2022/07/19 00:11:42;;;;;;;3.70;2.33;;;;;;;16.14;68.26;100287.08;1815088;78;21045;-72
2022/07/19 00:14:09;;;;;;;3.00;2.15;;;;;;;16.13;68.40;100291.63;1824616;78;21018;-72
2022/07/19 00:16:37;;;;;;;4.37;2.02;;;;;;;16.10;68.55;100283.44;1819417;77;21525;-71
2022/07/19 00:19:04;;;;;;;3.45;1.90;;;;;;;16.07;68.73;100289.68;1807479;77;21025;-74
2022/07/19 00:21:31;;;;;;;4.72;1.55;;;;;;;16.04;68.81;100285.55;1810410;77;21394;-73
2022/07/19 00:23:58;;;;;;;2.22;1.90;;;;;;;16.15;68.62;100282.88;1822906;77;21018;-71
2022/07/19 00:26:24;;;;;;;1.77;1.67;;;;;;;16.21;68.35;100281.28;1823858;77;21487;-72
2022/07/19 00:28:52;;;;;;;3.20;2.50;;;;;;;16.19;68.35;100280.13;1811183;78;21021;-72
2022/07/19 00:31:19;;;;;;;2.95;2.20;;;;;;;16.21;68.36;100286.64;1806261;77;21088;-71
2022/07/19 00:33:45;;;;;;;5.35;2.30;;;;;;;16.21;68.44;100290.66;1821092;77;21227;-71
2022/07/19 00:36:12;;;;;;;2.90;2.05;;;;;;;16.19;68.42;100285.48;1821750;77;21040;-73
2022/07/19 00:38:40;;;;;;;4.10;2.05;;;;;;;16.19;68.37;100283.33;1809046;77;21049;-72
2022/07/19 00:41:07;;;;;;;5.28;2.62;;;;;;;16.16;68.39;100285.86;1796860;77;20978;-72
2022/07/19 00:43:33;;;;;;;5.20;1.90;;;;;;;16.14;68.43;100282.55;1800132;77;21052;-72
2022/07/19 00:46:00;;;;;;;3.40;1.80;;;;;;;16.12;68.42;100281.91;1808936;77;22587;-71
2022/07/19 00:48:26;;;;;;;2.50;1.70;;;;;;;16.10;68.40;100282.61;1801526;78;20963;-72
2022/07/19 00:50:53;;;;;;;4.35;1.92;;;;;;;16.09;68.42;100275.61;1801307;77;21545;-73
2022/07/19 00:53:19;;;;;;;1.70;1.60;;;;;;;16.08;68.43;100276.61;1794147;77;21044;-74
2022/07/19 00:55:46;;;;;;;2.60;1.70;;;;;;;16.07;68.47;100279.81;1807925;77;20990;-73
2022/07/19 00:58:15;;;;;;;3.15;1.85;;;;;;;16.05;68.41;100276.50;1809598;78;23023;-70
2022/07/19 01:00:43;;;;;;;3.10;1.55;;;;;;;16.03;68.37;100274.52;1806012;77;20982;-72
2022/07/19 01:03:09;;;;;;;2.83;2.12;;;;;;;16.01;68.28;100275.22;1814208;79;21178;-71
2022/07/19 01:05:36;;;;;;;2.22;1.60;;;;;;;15.99;68.15;100276.41;1813597;78;21482;-71
2022/07/19 01:08:03;;;;;;;2.87;1.82;;;;;;;15.97;68.08;100263.72;1802512;77;21525;-72
2022/07/19 01:10:30;;;;;;;4.60;1.70;;;;;;;15.96;67.96;100266.91;1796360;79;21140;-71
2022/07/19 01:12:57;;;;;;;1.77;1.47;;;;;;;15.95;67.77;100263.08;1811841;79;21062;-71
2022/07/19 01:15:25;;;;;;;3.27;1.40;;;;;;;15.94;67.71;100268.95;1810847;77;21611;-71
2022/07/19 01:17:52;;;;;;;3.65;1.80;;;;;;;15.92;67.62;100262.44;1803486;77;21029;-69
2022/07/19 01:20:21;;;;;;;3.47;2.02;;;;;;;15.91;67.39;100262.11;1812627;77;21036;-70
2022/07/19 01:22:47;;;;;;;3.60;1.60;;;;;;;15.90;67.35;100256.96;1807187;78;21534;-73
2022/07/19 01:25:15;;;;;;;3.65;2.60;;;;;;;15.88;67.26;100255.80;1803417;77;20994;-70
2022/07/19 01:27:47;;;;;;;3.12;1.80;;;;;;;15.88;67.19;100260.34;1811563;77;21026;-69
2022/07/19 01:30:20;;;;;;;2.87;2.30;;;;;;;15.86;67.14;100254.34;1807891;77;21466;-70
2022/07/19 01:32:48;;;;;;;;;;;;;;;15.85;67.16;100257.52;1791867;79;21065;-70
2022/07/19 01:35:15;;;;;;;2.95;2.02;;;;;;;15.82;67.28;100263.27;1811182;77;21133;-71
2022/07/19 01:37:42;;;;;;;2.87;2.00;;;;;;;15.80;67.30;100259.95;1809564;77;21116;-70
2022/07/19 01:40:12;;;;;;;2.98;2.10;;;;;;;15.78;67.34;100262.48;1801229;78;21099;-70
2022/07/19 01:42:39;;;;;;;2.40;1.80;;;;;;;15.77;67.28;100260.32;1796969;77;20974;-70
2022/07/19 01:45:08;;;;;;;5.03;2.17;;;;;;;15.78;67.23;100266.02;1798346;77;21510;-72
2022/07/19 01:47:36;;;;;;;3.10;1.90;;;;;;;15.78;67.06;100259.80;1807173;77;21138;-72
2022/07/19 01:50:05;;;;;;;3.90;2.08;;;;;;;15.81;66.96;100266.13;1806230;77;21017;-73
2022/07/19 01:52:32;;;;;;;2.75;2.30;;;;;;;15.82;66.84;100260.59;1813217;79;21013;-72
2022/07/19 01:54:58;;;;;;;3.77;1.70;;;;;;;15.87;66.79;100262.69;1808445;77;21470;-72
2022/07/19 01:57:26;;;;;;;3.40;2.17;;;;;;;15.90;66.67;100259.12;1806246;77;21092;-71
2022/07/19 01:59:54;;;;;;;3.35;1.70;;;;;;;15.91;66.51;100262.11;1799010;77;21612;-73
2022/07/19 02:02:21;;;;;;;3.40;1.95;;;;;;;15.95;66.42;100261.73;1806162;77;21143;-71
2022/07/19 02:04:47;;;;;;;1.77;1.40;;;;;;;15.97;66.38;100263.20;1795949;78;21608;-71
2022/07/19 02:07:14;;;;;;;4.37;1.55;;;;;;;16.01;66.24;100266.33;1792823;78;21510;-70
2022/07/19 02:09:41;;;;;;;4.80;1.75;;;;;;;16.04;66.08;100259.27;1815440;78;21038;-72
2022/07/19 02:12:07;;;;;;;2.05;1.55;;;;;;;16.06;66.09;100261.23;1800868;77;21114;-71
2022/07/19 02:14:35;;;;;;;4.47;1.77;;;;;;;16.07;66.03;100262.39;1811978;78;21069;-73
2022/07/19 02:17:02;;;;;;;4.58;1.70;;;;;;;16.08;66.00;100264.03;1819103;77;21065;-71
2022/07/19 02:19:29;;;;;;;2.85;1.87;;;;;;;16.13;65.98;100264.82;1806712;78;21013;-71
2022/07/19 02:21:56;;;;;;;2.12;1.70;;;;;;;16.15;65.82;100260.58;1807498;78;21018;-71
2022/07/19 02:24:23;;;;;;;3.40;1.77;;;;;;;16.16;65.85;100262.25;1797833;78;21181;-74
2022/07/19 02:26:50;;;;;;;4.33;1.80;;;;;;;16.16;65.79;100263.59;1810415;79;21040;-71
2022/07/19 02:29:17;;;;;;;5.08;2.17;;;;;;;16.16;65.77;100260.40;1796414;79;21025;-73
2022/07/19 02:31:44;;;;;;;4.62;1.65;;;;;;;16.17;65.80;100266.09;1782568;78;20978;-72
2022/07/19 02:34:11;;;;;;;4.08;1.90;;;;;;;16.18;65.81;100266.91;1815904;77;21730;-71
2022/07/19 02:36:38;;;;;;;2.75;1.87;;;;;;;16.19;65.86;100264.05;1785143;78;21508;-71
2022/07/19 02:39:04;;;;;;;3.12;1.75;;;;;;;16.20;65.84;100267.03;1788794;78;21085;-72
2022/07/19 02:41:31;;;;;;;2.67;2.15;;;;;;;16.21;65.88;100259.32;1818299;78;20945;-72
2022/07/19 02:43:58;;;;;;;7.17;2.10;;;;;;;16.22;65.96;100258.28;1825674;78;20998;-71
2022/07/19 02:46:24;;;;;;;3.45;2.10;;;;;;;16.23;66.15;100257.28;1818374;78;20993;-73
2022/07/19 02:48:51;;;;;;;3.10;1.60;;;;;;;16.24;66.27;100255.41;1822048;78;21122;-77
2022/07/19 02:51:17;;;;;;;2.15;1.70;;;;;;;16.26;66.29;100255.56;1829717;77;20958;-72
2022/07/19 02:53:44;;;;;;;3.15;1.95;;;;;;;16.29;66.35;100255.16;1814653;75;21005;-72
2022/07/19 02:56:11;;;;;;;3.02;1.95;;;;;;;16.30;66.39;100256.83;1817138;78;21010;-74
2022/07/19 02:58:38;;;;;;;2.60;2.22;;;;;;;16.30;66.45;100259.52;1824283;78;20930;-74
2022/07/19 03:01:04;;;;;;;5.35;2.10;;;;;;;16.33;66.44;100257.47;1816751;78;21190;-72
2022/07/19 03:03:43;;;;;;;3.65;2.00;;;;;;;16.35;66.42;100262.95;1822870;78;21533;-71
2022/07/19 03:06:11;;;;;;;5.70;2.10;;;;;;;16.34;66.47;100253.75;1808983;78;20976;-69
2022/07/19 03:08:38;;;;;;;2.35;2.15;;;;;;;16.35;66.50;100258.10;1822177;77;20978;-70
2022/07/19 03:11:05;;;;;;;3.45;2.15;;;;;;;16.35;66.50;100257.58;1818970;78;21106;-71
2022/07/19 03:13:31;;;;;;;2.33;1.72;;;;;;;16.36;66.45;100254.38;1824482;77;21239;-70
2022/07/19 03:15:58;;;;;;;3.25;1.92;;;;;;;16.36;66.44;100255.23;1821391;78;21009;-72
2022/07/19 03:18:24;;;;;;;1.70;1.60;;;;;;;16.36;66.46;100255.23;1827423;78;21053;-72
2022/07/19 03:20:51;;;;;;;3.80;2.02;;;;;;;16.37;66.34;100249.35;1821496;78;21119;-72
2022/07/19 03:23:18;;;;;;;3.83;2.00;;;;;;;16.33;66.39;100252.11;1808562;78;21025;-73
2022/07/19 03:25:44;;;;;;;3.75;1.98;;;;;;;16.36;66.42;100253.04;1818370;77;21088;-72
2022/07/19 03:28:13;;;;;;;3.85;1.77;;;;;;;16.35;66.43;100254.91;1809492;78;21060;-72
2022/07/19 03:30:39;;;;;;;2.80;2.00;;;;;;;16.37;66.52;100256.05;1814178;78;21052;-72
2022/07/19 03:33:06;;;;;;;2.75;1.95;;;;;;;16.37;66.62;100246.67;1824880;78;21025;-74
2022/07/19 03:35:33;;;;;;;2.65;1.75;;;;;;;16.40;66.71;100247.61;1802397;78;21023;-74
2022/07/19 03:37:59;;;;;;;5.90;2.30;;;;;;;16.42;66.76;100252.29;1824078;78;21178;-75
2022/07/19 03:40:26;;;;;;;5.08;2.22;;;;;;;16.44;66.79;100249.72;1821122;78;21049;-75
2022/07/19 03:42:53;;;;;;;7.05;2.45;;;;;;;16.50;66.81;100250.80;1812112;77;22085;-71
2022/07/19 03:45:19;;;;;;;4.22;2.00;;;;;;;16.55;66.90;100251.55;1811002;78;21033;-71
2022/07/19 03:47:46;;;;;;;2.87;2.00;;;;;;;16.60;66.69;100256.65;1815621;77;21045;-73
2022/07/19 03:50:13;;;;;;;3.35;1.95;;;;;;;16.65;66.55;100255.56;1809830;77;21205;-73
2022/07/19 03:52:39;;;;;;;3.72;2.00;;;;;;;16.69;66.44;100251.45;1819048;78;21048;-73
2022/07/19 03:55:07;;;;;;;2.80;1.80;;;;;;;16.74;66.35;100250.04;1816572;78;21036;-75
2022/07/19 03:57:33;;;;;;;4.75;2.10;;;;;;;16.78;66.22;100255.33;1816697;78;21516;-73
2022/07/19 04:00:00;;;;;;;4.58;1.90;;;;;;;16.81;66.26;100256.28;1818353;77;21529;-73
2022/07/19 04:02:26;;;;;;;5.85;2.15;;;;;;;16.83;66.07;100251.58;1821491;78;21550;-72
2022/07/19 04:04:53;;;;;;;8.80;2.47;;;;;;;16.86;66.09;100253.36;1808643;78;21556;-74
2022/07/19 04:07:20;;;;;;;2.47;1.87;;;;;;;16.90;66.01;100254.63;1822192;78;21014;-74
2022/07/19 04:09:47;;;;;;;2.92;1.98;;;;;;;16.95;65.96;100255.89;1825798;77;21060;-73
2022/07/19 04:12:14;;;;;;;4.47;2.40;;;;;;;16.99;65.83;100249.91;1817834;77;21049;-73
2022/07/19 04:14:40;;;;;;;4.53;1.98;;;;;;;17.04;65.94;100251.50;1815520;78;21198;-73
2022/07/19 04:17:07;;;;;;;4.28;2.30;;;;;;;17.09;65.88;100254.43;1754319;80;21013;-73
2022/07/19 04:19:35;;;;;;;5.08;1.95;;;;;;;17.16;65.76;100251.77;1767267;80;21049;-70
2022/07/19 04:22:01;;;;;;;2.47;2.10;;;;;;;17.20;65.47;100249.00;1771237;80;21154;-73
2022/07/19 04:24:28;;;;;;;2.95;1.90;;;;;;;17.22;65.66;100248.28;1753208;80;21041;-72
2022/07/19 04:26:55;;;;;;;4.10;2.00;;;;;;;17.25;65.66;100253.27;1752280;80;21110;-74
2022/07/19 04:29:21;;;;;;;3.50;2.10;;;;;;;17.28;65.52;100254.71;1777833;80;21041;-71
2022/07/19 04:31:48;;;;;;;3.12;2.12;;;;;;;17.30;65.71;100252.66;1762029;80;21557;-73
2022/07/19 04:34:14;;;;;;;2.80;2.10;;;;;;;17.31;65.90;100252.98;1787736;78;21535;-73
2022/07/19 04:36:42;;;;;;;4.20;2.52;;;;;;;17.32;65.79;100247.91;1768352;78;21098;-73
2022/07/19 04:39:09;;;;;;;2.80;2.15;;;;;;;17.34;65.83;100256.59;1767272;80;21209;-73
2022/07/19 04:41:36;;;;;;;3.47;2.40;;;;;;;17.37;65.86;100250.02;1734520;81;21046;-73
2022/07/19 04:44:02;;;;;;;3.98;2.17;;;;;;;17.40;66.00;100250.45;1759838;81;21094;-71
2022/07/19 04:46:30;;;;;;;3.17;1.90;;;;;;;17.46;65.83;100259.04;1798268;79;21462;-72
2022/07/19 04:48:57;;;;;;;5.10;2.35;;;;;;;17.51;65.86;100262.45;1781241;79;21512;-73
2022/07/19 04:51:23;;;;;;;3.65;2.15;;;;;;;17.56;65.89;100264.03;1759934;81;21172;-71
2022/07/19 04:53:49;;;;;;;4.03;2.20;;;;;;;17.60;65.75;100261.78;1744985;79;21050;-73
2022/07/19 04:56:16;;;;;;;2.75;2.05;;;;;;;17.65;65.62;100261.98;1754160;79;21129;-72
2022/07/19 04:58:43;;;;;;;5.80;2.30;;;;;;;17.69;65.77;100261.39;1755387;79;21061;-74
2022/07/19 05:01:09;;;;;;;5.90;2.80;;;;;;;17.75;65.51;100265.62;1757828;79;21121;-73
2022/07/19 05:03:36;;;;;;;6.03;2.92;;;;;;;17.77;65.47;100267.10;1742648;80;21254;-73
2022/07/19 05:06:03;;;;;;;6.30;2.45;;;;;;;17.78;65.38;100266.05;1757618;79;21006;-71
2022/07/19 05:08:31;;;;;;;5.35;2.83;;;;;;;17.77;65.45;100265.76;1753526;79;21522;-73
2022/07/19 05:10:58;;;;;;;3.02;2.45;;;;;;;17.77;65.45;100267.59;1752744;79;22493;-72
2022/07/19 05:13:25;;;;;;;5.60;2.22;;;;;;;17.75;65.52;100271.85;1762163;80;21034;-72
2022/07/19 05:15:52;;;;;;;3.40;2.37;;;;;;;17.75;65.58;100273.20;1763999;79;21247;-71
2022/07/19 05:18:18;;;;;;;3.98;2.17;;;;;;;17.77;65.88;100273.82;1760633;80;21062;-72
2022/07/19 05:20:45;;;;;;;7.50;2.70;;;;;;;17.79;65.99;100274.44;1758200;79;21088;-73
2022/07/19 05:23:11;;;;;;;3.95;2.45;;;;;;;17.86;66.02;100271.27;1764580;80;21089;-73
2022/07/19 05:25:39;;;;;;;3.42;2.75;;;;;;;17.91;65.94;100265.83;1757597;80;21022;-73
2022/07/19 05:28:06;;;;;;;5.72;2.70;;;;;;;17.98;65.94;100266.64;1761488;79;21141;-73
2022/07/19 05:30:32;;;;;;;3.85;2.58;;;;;;;18.04;65.89;100269.36;1752962;79;21030;-73
2022/07/19 05:32:59;;;;;;;6.05;2.77;;;;;;;18.10;65.87;100270.91;1762907;80;21014;-74
2022/07/19 05:35:26;;;;;;;5.30;2.47;;;;;;;18.17;65.75;100271.75;1762972;80;21054;-73
2022/07/19 05:37:52;;;;;;;4.83;2.70;;;;;;;18.23;65.95;100268.23;1756614;79;21513;-75
2022/07/19 05:40:19;;;;;;;4.55;2.67;;;;;;;18.33;65.89;100274.05;1759358;79;21538;-74
2022/07/19 05:42:45;;;;;;;3.90;2.20;;;;;;;18.42;65.61;100277.36;1759503;79;20986;-75
2022/07/19 05:45:11;;;;;;;3.95;2.30;;;;;;;18.53;65.74;100276.74;1758936;79;21006;-75
2022/07/19 05:47:38;;;;;;;6.15;3.60;;;;;;;18.69;65.55;100272.79;1744465;80;21093;-75
2022/07/19 05:50:06;;;;;;;9.33;3.60;;;;;;;18.83;65.27;100276.32;1737101;79;21121;-75
2022/07/19 05:52:33;;;;;;;3.58;2.50;;;;;;;18.97;65.16;100275.28;1753219;80;21140;-74
2022/07/19 05:54:59;;;;;;;4.05;2.83;;;;;;;19.14;64.78;100283.73;1810626;77;20987;-74
2022/07/19 05:57:26;;;;;;;3.98;2.55;;;;;;;19.28;64.45;100276.94;1811997;77;21204;-77
2022/07/19 05:59:53;;;;;;;4.22;2.60;;;;;;;19.41;64.27;100281.79;1784770;77;21030;-76
2022/07/19 06:02:20;;;;;;;7.40;3.00;;;;;;;19.56;64.01;100277.98;1794829;78;21069;-75
2022/07/19 06:04:47;;;;;;;3.55;2.80;;;;;;;19.67;64.34;100273.27;1803148;77;21299;-80
2022/07/19 06:07:13;;;;;;;3.72;2.58;;;;;;;19.74;64.51;100272.77;1813014;78;21279;-80
2022/07/19 06:09:41;;;;;;;5.10;2.92;;;;;;;19.81;64.86;100276.23;1808069;79;21398;-78
2022/07/19 06:12:09;;;;;;;4.80;2.92;;;;;;;19.89;64.71;100262.20;1800480;78;21057;-79
2022/07/19 06:14:35;;;;;;;3.98;2.20;;;;;;;19.96;64.46;100266.50;1811922;77;21033;-76
2022/07/19 06:17:02;;;;;;;4.60;3.12;;;;;;;20.00;64.04;100257.46;1803154;77;21090;-77
2022/07/19 06:19:30;;;;;;;7.83;2.98;;;;;;;20.03;64.00;100256.52;1796833;78;21577;-77
2022/07/19 06:21:56;;;;;;;5.28;3.02;;;;;;;20.06;63.94;100249.84;1808484;78;21068;-79
2022/07/19 06:24:23;;;;;;;3.52;2.80;;;;;;;20.10;63.94;100258.33;1799548;77;21198;-77
2022/07/19 06:26:49;;;;;;;6.60;3.02;;;;;;;20.12;63.88;100254.89;1735566;81;21041;-79
2022/07/19 06:29:15;;;;;;;3.50;2.58;;;;;;;20.14;63.64;100244.70;1734240;80;21198;-78
2022/07/19 06:31:42;;;;;;;4.35;2.72;;;;;;;20.14;63.55;100245.52;1734118;80;21092;-75
2022/07/19 06:34:09;;;;;;;4.33;3.30;;;;;;;20.18;63.54;100242.69;1768451;80;21053;-76
2022/07/19 06:36:37;;;;;;;4.60;3.58;;;;;;;20.21;63.34;100236.87;1765641;79;21057;-75
2022/07/19 06:39:05;;;;;;;7.45;3.15;;;;;;;20.31;63.08;100241.77;1754266;80;21159;-80
2022/07/19 06:41:31;;;;;;;5.40;3.00;;;;;;;20.39;62.75;100248.77;1758191;79;21764;-78
2022/07/19 06:43:58;;;;;;;4.55;2.75;;;;;;;20.40;62.68;100244.50;1751841;80;21147;-77
2022/07/19 06:46:24;;;;;;;3.10;2.67;;;;;;;20.43;62.59;100248.09;1744652;80;21065;-79
2022/07/19 06:48:52;;;;;;;5.42;2.98;;;;;;;20.47;62.40;100245.78;1758202;80;21085;-80
2022/07/19 06:51:19;;;;;;;4.05;3.10;;;;;;;20.46;62.25;100248.73;1758935;79;21112;-80
2022/07/19 06:53:45;;;;;;;5.72;3.67;;;;;;;20.38;62.18;100249.30;1750039;80;21612;-79
2022/07/19 06:56:12;;;;;;;5.47;3.62;;;;;;;20.31;62.65;100249.05;1746860;80;21015;-79
2022/07/19 06:58:39;;;;;;;4.12;3.25;;;;;;;20.16;62.96;100260.97;1747516;80;21034;-82
2022/07/19 07:01:05;;;;;;;5.17;3.55;;;;;;;19.98;63.49;100259.55;1753777;80;21079;-80
2022/07/19 07:03:32;;;;;;;6.00;3.27;;;;;;;19.84;64.06;100260.98;1759963;79;21047;-78
2022/07/19 07:05:59;;;;;;;9.70;3.70;;;;;;;19.79;64.55;100264.02;1753672;80;21100;-77
2022/07/19 07:08:26;;;;;;;5.30;3.37;;;;;;;19.75;64.75;100258.22;1750223;80;21558;-78
2022/07/19 07:10:55;;;;;;;5.15;3.40;;;;;;;19.77;64.95;100262.88;1756895;81;21029;-89
2022/07/19 07:13:22;;;;;;;6.22;2.92;;;;;;;19.80;65.77;100257.59;1739342;76;21070;-89
2022/07/19 07:15:48;;;;;;;6.20;3.15;;;;;;;19.84;66.29;100265.55;1716521;80;21125;-86
2022/07/19 07:18:17;;;;;;;4.17;3.30;;;;;;;19.91;67.39;100262.80;1719206;81;21276;-85
2022/07/19 07:20:47;;;;;;;4.22;2.80;;;;;;;20.02;66.63;100266.16;1682908;83;21568;-87
2022/07/19 07:23:15;;;;;;;6.92;3.60;;;;;;;20.16;65.96;100277.68;1686075;85;21029;-87
2022/07/19 07:25:42;;;;;;;4.55;3.40;;;;;;;20.21;65.14;100275.98;1698180;83;21065;-89
2022/07/19 07:28:09;;;;;;;7.28;3.83;;;;;;;20.16;64.66;100277.68;1688448;83;21156;-87
2022/07/19 07:30:37;;;;;;;4.03;3.40;;;;;;;20.10;64.85;100281.25;1689936;83;21204;-88
2022/07/19 07:33:04;;;;;;;8.38;3.40;;;;;;;20.07;65.17;100277.63;1752420;80;21084;-88
2022/07/19 07:35:31;;;;;;;5.12;3.95;;;;;;;20.03;65.09;100279.96;1755160;80;21623;-75
2022/07/19 07:37:57;;;;;;;7.37;3.90;;;;;;;19.95;64.91;100280.20;1753017;80;21553;-75
2022/07/19 07:40:24;;;;;;;4.83;4.33;;;;;;;19.92;64.87;100283.34;1754004;80;21547;-77
2022/07/19 07:42:50;;;;;;;6.40;4.55;;;;;;;19.90;65.09;100289.48;1742986;80;21208;-77
2022/07/19 07:45:17;;;;;;;6.45;3.83;;;;;;;19.91;65.59;100286.54;1749103;80;21005;-78
2022/07/19 07:47:45;;;;;;;7.65;4.72;;;;;;;19.93;65.07;100284.45;1750505;80;21044;-78
2022/07/19 07:50:11;;;;;;;6.08;4.42;;;;;;;19.90;65.14;100288.13;1751033;81;21018;-79
2022/07/19 07:52:38;;;;;;;6.17;4.85;;;;;;;19.87;65.35;100295.28;1763662;80;21001;-79
2022/07/19 07:55:05;;;;;;;8.68;5.15;;;;;;;19.81;65.97;100293.75;1745505;80;21528;-79
2022/07/19 07:57:32;;;;;;;6.55;4.47;;;;;;;19.80;67.09;100296.16;1754023;80;21022;-78
2022/07/19 07:59:59;;;;;;;4.97;3.92;;;;;;;19.76;68.37;100294.94;1753519;80;21386;-78
2022/07/19 08:02:26;;;;;;;5.72;3.70;;;;;;;19.81;68.71;100295.63;1756145;80;21085;-79
2022/07/19 08:04:53;;;;;;;3.95;3.20;;;;;;;19.81;68.46;100291.05;1745010;81;21064;-79
2022/07/19 08:07:20;;;;;;;6.17;3.55;;;;;;;19.73;68.61;100288.61;1758132;80;21429;-79
2022/07/19 08:09:47;;;;;;;5.80;3.77;;;;;;;19.64;68.81;100289.36;1769127;80;21567;-77
2022/07/19 08:12:13;;;;;;;4.72;3.62;;;;;;;19.60;69.55;100289.98;1746944;80;21084;-77
2022/07/19 08:14:41;;;;;;;5.28;3.87;;;;;;;19.56;69.94;100290.11;1748440;80;21006;-80
2022/07/19 08:17:09;;;;;;;9.20;3.70;;;;;;;19.54;70.23;100293.02;1751130;80;21045;-80
2022/07/19 08:19:35;;;;;;;5.55;3.45;;;;;;;19.53;69.90;100296.77;1757955;80;21082;-82
2022/07/19 08:22:01;;;;;;;4.53;3.22;;;;;;;19.53;68.91;100289.18;1760223;80;21454;-79
2022/07/19 08:24:28;;;;;;;3.67;3.27;;;;;;;19.52;69.12;100295.63;1757444;80;21037;-79
2022/07/19 08:26:55;;;;;;;6.85;3.27;;;;;;;19.58;68.95;100285.34;1738583;80;21032;-82
2022/07/19 08:29:22;;;;;;;7.03;3.30;;;;;;;19.62;68.88;100291.45;1760600;80;20995;-81
2022/07/19 08:31:48;;;;;;;3.08;2.72;;;;;;;19.62;68.37;100277.13;1751231;80;21320;-80
2022/07/19 08:34:15;;;;;;;6.35;3.05;;;;;;;19.62;68.45;100282.02;1756660;80;21033;-81
2022/07/19 08:36:41;;;;;;;4.90;2.92;;;;;;;19.67;68.24;100275.16;1734489;81;21006;-80
2022/07/19 08:39:09;;;;;;;3.77;2.87;;;;;;;19.76;68.00;100276.06;1746711;80;21006;-78
2022/07/19 08:41:37;;;;;;;5.30;3.25;;;;;;;19.86;66.95;100283.69;1747704;81;21111;-79
2022/07/19 08:44:03;;;;;;;6.65;3.17;;;;;;;19.92;66.95;100275.26;1741705;81;21924;-78
2022/07/19 08:46:31;;;;;;;4.50;3.17;;;;;;;19.98;66.86;100276.55;1746851;80;21620;-77
2022/07/19 08:48:58;;;;;;;5.90;2.85;;;;;;;20.02;66.27;100277.77;1748529;82;21478;-82
2022/07/19 08:51:24;;;;;;;6.15;3.08;;;;;;;20.07;66.12;100276.28;1745546;82;21532;-80
2022/07/19 08:53:51;;;;;;;4.90;3.02;;;;;;;20.14;66.04;100272.50;1684486;82;21629;-80
2022/07/19 08:59:04;;;;;;;6.75;2.95;;;;;;;20.37;65.71;100269.22;1747720;82;21591;-79
2022/07/19 09:01:30;;;;;;;3.75;2.62;;;;;;;20.49;65.58;100273.38;1748827;80;21546;-79
2022/07/19 09:04:11;;;;;;;5.35;2.87;;;;;;;20.56;65.69;100267.41;1767897;80;21531;-79
2022/07/19 09:06:45;;;;;;;6.47;3.10;;;;;;;20.63;65.55;100263.34;1737114;80;21100;-79
2022/07/19 09:09:15;;;;;;;4.17;3.08;;;;;;;20.68;65.31;100259.44;1742537;80;21130;-82
2022/07/19 09:11:48;;;;;;;4.10;2.70;;;;;;;20.69;65.51;100264.34;1751592;80;21013;-82
2022/07/19 09:14:17;;;;;;;7.42;2.95;;;;;;;20.66;66.31;100264.77;1753151;80;21057;-81
2022/07/19 09:16:53;;;;;;;3.00;2.70;;;;;;;20.60;66.26;100274.57;1751202;80;21061;-81
2022/07/19 09:19:20;;;;;;;4.03;3.37;;;;;;;20.58;66.81;100269.89;1762672;80;21581;-80
2022/07/19 09:21:59;;;;;;;5.40;3.37;;;;;;;20.51;67.88;100269.92;1742969;80;21310;-82
2022/07/19 09:24:26;;;;;;;4.72;3.08;;;;;;;20.37;69.33;100269.75;1757086;80;21081;-79
2022/07/19 09:27:06;;;;;;;3.33;2.90;;;;;;;20.28;71.26;100277.80;1726908;80;21089;-79
2022/07/19 09:29:36;;;;;;;4.15;2.72;;;;;;;20.19;72.59;100271.86;1738260;80;21036;-77
2022/07/19 09:32:19;;;;;;;5.53;3.00;;;;;;;19.93;74.91;100270.15;1747066;80;21108;-83
2022/07/19 09:34:57;;;;;;;3.98;2.83;;;;;;;19.72;76.12;100274.00;1735736;80;22010;-83
2022/07/19 09:37:34;;;;;;;5.25;2.95;;;;;;;19.57;77.97;100272.39;1753880;80;21116;-83
2022/07/19 09:40:07;;;;;;;5.15;3.22;;;;;;;19.55;78.12;100275.00;1737369;80;21080;-80
2022/07/19 09:42:43;;;;;;;5.72;3.42;;;;;;;19.45;79.14;100273.59;1720202;80;21752;-81
2022/07/19 09:45:17;;;;;;;3.60;2.60;;;;;;;19.38;79.71;100270.61;1759286;80;20989;-84
2022/07/19 09:47:47;;;;;;;4.17;2.58;;;;;;;19.34;80.45;100275.59;1745483;80;21187;-84
2022/07/19 09:50:16;;;;;;;13.22;3.15;;;;;;;19.40;80.49;100270.69;1744931;80;21054;-78
2022/07/19 09:52:48;;;;;;;2.65;2.35;;;;;;;19.42;79.59;100262.41;1741659;80;21524;-77
2022/07/19 09:55:15;;;;;;;2.35;2.15;;;;;;;19.41;78.30;100262.08;1745161;80;21680;-82
2022/07/19 09:57:45;;;;;;;2.27;1.95;;;;;;;19.35;79.98;100259.72;1760980;80;20986;-86
2022/07/19 10:00:14;;;;;;;3.75;2.30;;;;;;;19.48;79.51;100256.68;1747315;80;21583;-86
2022/07/19 10:02:44;;;;;;;4.40;2.60;;;;;;;19.71;78.61;100252.11;1758872;80;21005;-86
2022/07/19 10:05:12;;;;;;;2.33;2.12;;;;;;;19.93;78.55;100259.36;1746499;80;21026;-87
2022/07/19 10:07:38;;;;;;;3.35;2.67;;;;;;;20.09;76.83;100251.27;1758242;80;21552;-83
2022/07/19 10:10:10;;;;;;;2.77;2.27;;;;;;;20.25;77.11;100251.28;1696530;82;21533;-81
2022/07/19 10:12:40;;;;;;;4.03;2.08;;;;;;;20.52;76.38;100243.79;1753632;80;20986;-81
2022/07/19 10:15:08;;;;;;;2.52;2.00;;;;;;;20.90;75.41;100242.31;1752289;80;21501;-83
2022/07/19 10:18:04;;;;;;;2.50;2.20;;;;;;;21.32;74.73;100239.73;1756881;80;21041;-87
2022/07/19 10:20:31;;;;;;;2.65;2.22;;;;;;;21.72;72.81;100225.73;1740515;80;20999;-88
2022/07/19 10:22:59;;;;;;;3.75;2.10;;;;;;;22.34;68.91;100224.07;1766215;78;21024;-86
2022/07/19 10:25:45;;;;;;;3.70;2.67;;;;;;;22.63;68.49;100220.67;1752346;80;21088;-85
2022/07/19 10:28:36;;;;;;;2.67;2.25;;;;;;;22.98;65.89;100220.63;1747966;81;20963;-88
2022/07/19 10:31:24;;;;;;;4.83;2.95;;;;;;;23.36;63.41;100221.98;1770396;80;20898;-80
2022/07/19 10:34:12;;;;;;;3.58;3.10;;;;;;;23.63;62.61;100218.70;1748578;80;21064;-81
2022/07/19 10:36:46;;;;;;;2.72;2.35;;;;;;;24.03;61.80;100205.59;1719613;80;21042;-84
2022/07/19 10:39:27;;;;;;;2.87;2.55;;;;;;;24.59;60.39;100208.39;1750472;80;21114;-83
2022/07/19 10:42:22;;;;;;;2.95;2.50;;;;;;;25.06;58.50;100201.97;1742511;80;21104;-83
2022/07/19 10:45:06;;;;;;;3.65;2.87;;;;;;;25.50;57.12;100201.16;1742186;80;20991;-83
2022/07/19 10:47:45;;;;;;;2.60;2.40;;;;;;;25.89;56.63;100191.45;1716615;82;21036;-81
2022/07/19 10:50:14;;;;;;;2.65;2.22;;;;;;;26.15;55.71;100182.16;1714896;81;21008;-80
2022/07/19 10:52:44;;;;;;;3.10;2.05;;;;;;;26.17;54.24;100185.44;1718816;81;21129;-79
2022/07/19 10:55:27;;;;;;;3.33;2.33;;;;;;;26.18;54.38;100178.92;1722623;81;21136;-82
2022/07/19 10:58:08;;;;;;;4.25;2.42;;;;;;;26.28;53.96;100181.16;1721569;81;21730;-84
2022/07/19 11:00:46;;;;;;;3.47;2.42;;;;;;;26.55;52.36;100186.25;1724094;81;21506;-80
2022/07/19 11:03:28;;;;;;;2.30;2.10;;;;;;;26.58;52.49;100178.89;1718661;83;21022;-82
2022/07/19 11:06:00;;;;;;;3.47;2.30;;;;;;;26.82;52.20;100171.16;1720211;81;21562;-82
2022/07/19 11:08:39;;;;;;;3.07;2.50;;;;;;;27.03;51.48;100170.16;1715895;82;21377;-81
2022/07/19 11:11:11;;;;;;;2.70;2.50;;;;;;;27.22;51.13;100165.05;1750406;80;21064;-80
2022/07/19 11:14:01;;;;;;;3.22;2.65;;;;;;;27.51;50.26;100176.88;1745058;80;21939;-77
2022/07/19 11:16:29;;;;;;;3.30;2.30;;;;;;;27.73;49.63;100167.62;1696024;83;21080;-79
2022/07/19 11:19:08;;;;;;;3.67;2.72;;;;;;;27.64;49.28;100161.86;1721825;81;21029;-80
2022/07/19 11:21:36;;;;;;;3.70;2.72;;;;;;;27.44;49.53;100168.12;1675794;83;21075;-78
2022/07/19 11:24:06;;;;;;;4.80;2.98;;;;;;;26.94;51.20;100163.57;1722328;82;21147;-77
2022/07/19 11:26:39;;;;;;;3.30;2.90;;;;;;;26.46;52.45;100156.79;1724439;81;21053;-78
2022/07/19 11:29:06;;;;;;;3.20;2.90;;;;;;;26.02;53.21;100157.03;1727331;81;21068;-80
2022/07/19 11:31:34;;;;;;;4.03;2.90;;;;;;;25.57;53.71;100166.94;1701348;84;21196;-79
2022/07/19 11:34:01;;;;;;;4.37;3.25;;;;;;;25.11;54.73;100166.70;1720148;83;21036;-79